Unionville Center, Ohio
Current Conditions -  °F | °C
As of 11:34 AM on Sunday 21 Dec 2014 (Local Time) from KMRT Reporting Station
Clear Clear  
Wind Chill: 32°   Ceiling: Unl
Heat Index: 32°   Visibility: 7mi
Dew Point: 22°   Wind: 3mph
Humidity: 65%   Direction: 200°SSW
Pressure: 30.29"   Gusts: NA
Location:  40.14°N, 83.34°W
Report Text: KMRT 211634Z AUTO 20003KT 7SM CLR 00/M06 A3029 RMK AO2 T00021057
Loading
Personal Weather Stations






























Interactive Weather Map New forecast layout! Learn more

10-Day Weather Forecast

Advertisements
Track Severe Weather on mobile